Terminal Aerodrome Forecast
Issued by NWS Wilmington, OH

Current Version | Previous Version | Graphics & Text | Print | Product List | Glossary On
Versions: 1 2 3 4 5 6 7 8 9 10 11 12 13 14 15 16 17 18 19 20 21 22
000
FTUS41 KILN 150816 AAB
TAFILN
TAF AMD
KILN 150816Z 1508/1606 16007KT 2SM -SN OVC025
     FM151200 17010KT P6SM OVC035
     FM151600 20012G22KT 3SM -SN OVC025
      TEMPO 1518/1521 1SM -SN OVC015
     FM160100 24010G18KT P6SM -SN OVC012=

USA.gov is the U.S. government's official web portal to all federal, state and local government web resources and services.